Latest Weather Observations for PORTABLE RFSNSW20

IDN60801

Issued at 5:03 am EDT Tuesday 22 October 2019 (issued every 10 minutes, with the page automatically refreshed every 10 minutes)

About weather observations | Map of weather stations | Latest weather observations for NSW | Other Formats
Station Details ID: 250085 Name: PORTABLE RFSNSW20 Lat: -31.04 Lon: 149.37 Height: 583.0 m
Data from the previous 72 hours. | See also: Recent months for locations in New South Wales
Date/Time
EDT
Temp
°C
App
Temp
°C
Dew
Point
°C
Rel
Hum
%
Delta-T
°C
Wind Press
QNH
hPa
Press
MSL
hPa
Rain since
9am
mm
Dir  Spd
km/h
Gust
km/h
Spd
kts
Gust
kts
22/04:50am 15.5 - 3.6 45 5.6 - - - - - - - 0.0
22/04:40am 15.6 - 3.6 44 5.7 - - - - - - - 0.0
22/04:30am 15.6 - 3.5 44 5.7 - - - - - - - 0.0
22/04:20am 15.8 - 3.5 43 5.8 - - - - - - - 0.0
22/04:00am 16.2 - 3.5 42 6.0 - - - - - - - 0.0
22/03:50am 16.3 - 3.5 42 6.1 - - - - - - - 0.0
22/03:40am 16.2 - 3.3 42 6.1 - - - - - - - 0.0
22/03:30am 16.1 - 3.2 42 6.1 - - - - - - - 0.0
22/03:20am 16.1 - 3.1 41 6.1 - - - - - - - 0.0
22/03:10am 16.1 - 2.9 41 6.2 - - - - - - - 0.0
22/03:00am 16.2 - 2.9 41 6.2 - - - - - - - 0.0
22/02:50am 16.4 - 2.8 40 6.4 - - - - - - - 0.0
22/02:40am 16.6 - 2.8 39 6.5 - - - - - - - 0.0
22/02:30am 16.9 - 2.7 38 6.7 - - - - - - - 0.0
22/02:20am 17.2 - 2.6 37 6.9 - - - - - - - 0.0
22/02:10am 17.1 - 2.6 38 6.8 - - - - - - - 0.0
22/02:00am 17.1 - 2.3 37 6.9 - - - - - - - 0.0
22/01:50am 17.0 - 2.4 37 6.8 - - - - - - - 0.0
22/01:40am 17.3 - 2.2 36 7.0 - - - - - - - 0.0
22/01:30am 17.4 - 2.1 36 7.1 - - - - - - - 0.0
22/01:20am 17.4 - 1.9 35 7.2 - - - - - - - 0.0
22/01:10am 17.5 - 1.5 34 7.4 - - - - - - - 0.0
22/01:00am 17.6 - 1.4 33 7.5 - - - - - - - 0.0
22/12:50am 17.8 - 1.2 32 7.6 - - - - - - - 0.0
22/12:40am 17.9 - 1.0 32 7.7 - - - - - - - 0.0
22/12:30am 17.9 - 0.7 31 7.8 - - - - - - - 0.0
22/12:20am 18.0 - 0.5 30 7.9 - - - - - - - 0.0
22/12:10am 18.2 - 0.2 29 8.1 - - - - - - - 0.0
22/12:00am 18.3 - 0.1 29 8.2 - - - - - - - 0.0
 
Date/Time
EDT
Temp
°C
App
Temp
°C
Dew
Point
°C
Rel
Hum
%
Delta-T
°C
Wind Press
QNH
hPa
Press
MSL
hPa
Rain since
9am
mm
Dir  Spd
km/h
Gust
km/h
Spd
kts
Gust
kts
21/11:50pm 18.4 - -0.1 28 8.3 - - - - - - - 0.0
21/11:40pm 18.5 - -0.1 28 8.4 - - - - - - - 0.0
21/11:30pm 18.7 - -0.2 28 8.5 - - - - - - - 0.0
21/11:20pm 19.0 - -0.4 27 8.7 - - - - - - - 0.0
21/11:10pm 19.1 - -0.3 27 8.7 - - - - - - - 0.0
21/11:00pm 19.2 - -0.5 26 8.8 - - - - - - - 0.0
21/10:50pm 19.5 - -0.5 26 9.0 - - - - - - - 0.0
21/10:40pm 19.6 - -0.5 26 9.0 - - - - - - - 0.0
21/10:30pm 19.9 - -0.8 25 9.3 - - - - - - - 0.0
21/10:20pm 20.0 - -0.8 24 9.3 - - - - - - - 0.0
21/10:10pm 19.9 - -1.0 24 9.3 - - - - - - - 0.0
21/10:00pm 19.6 - -1.4 24 9.3 - - - - - - - 0.0
21/09:50pm 19.8 - -1.4 24 9.4 - - - - - - - 0.0
21/09:40pm 20.4 - -1.3 23 9.7 - - - - - - - 0.0
21/09:30pm 20.9 - -1.6 22 10.0 - - - - - - - 0.0
21/09:20pm 21.2 - -2.5 20 10.4 - - - - - - - 0.0
21/09:10pm 21.2 - -2.4 20 10.4 - - - - - - - 0.0
21/09:00pm 21.3 - -2.3 20 10.4 - - - - - - - 0.0
21/08:50pm 21.4 - -2.3 20 10.4 - - - - - - - 0.0
21/08:40pm 21.7 - -2.2 20 10.6 - - - - - - - 0.0
21/08:30pm 21.8 - -2.4 19 10.7 - - - - - - - 0.0
21/08:20pm 21.8 - -2.6 19 10.7 - - - - - - - 0.0
21/08:00pm 22.2 - -3.0 18 11.0 - - - - - - - 0.0
21/07:50pm 22.3 - -3.1 18 11.1 - - - - - - - 0.0
21/07:40pm 22.4 - -3.1 18 11.2 - - - - - - - 0.0
21/07:30pm 22.4 - -3.0 18 11.1 - - - - - - - 0.0
21/07:20pm 22.7 - -3.1 17 11.3 - - - - - - - 0.0
21/07:10pm 23.2 - -3.1 17 11.6 - - - - - - - 0.0
21/07:00pm 23.6 - -3.1 16 11.8 - - - - - - - 0.0
21/06:50pm 23.9 - -3.3 16 12.0 - - - - - - - 0.0
21/06:40pm 24.3 - -3.5 15 12.3 - - - - - - - 0.0
21/06:30pm 24.4 - -3.4 15 12.3 - - - - - - - 0.0
21/06:20pm 24.7 - -3.4 15 12.5 - - - - - - - 0.0
21/06:10pm 25.1 - -3.5 15 12.7 - - - - - - - 0.0
21/06:00pm 25.4 - -3.6 14 12.9 - - - - - - - 0.0
21/05:50pm 25.6 - -3.7 14 13.0 - - - - - - - 0.0
21/05:40pm 26.1 - -3.4 14 13.2 - - - - - - - 0.0
21/05:30pm 26.6 - -3.4 13 13.5 - - - - - - - 0.0
21/05:20pm 26.4 - -3.5 14 13.4 - - - - - - - 0.0
21/05:10pm 26.2 - -3.4 14 13.3 - - - - - - - 0.0
21/05:00pm 26.3 - -3.5 14 13.4 - - - - - - - 0.0
21/04:50pm 26.2 - -3.5 14 13.3 - - - - - - - 0.0
21/04:40pm 26.1 - -3.2 14 13.2 - - - - - - - 0.0
21/04:30pm 25.9 - -3.0 14 13.1 - - - - - - - 0.0
21/04:20pm 26.5 - -2.7 14 13.3 - - - - - - - 0.0
21/04:10pm 27.1 - -2.6 14 13.6 - - - - - - - 0.0
21/04:00pm 27.6 - -3.0 13 14.0 - - - - - - - 0.0
21/03:50pm 27.2 - -3.0 13 13.8 - - - - - - - 0.0
21/03:40pm 26.4 - -2.8 14 13.3 - - - - - - - 0.0
21/03:30pm 26.3 - -3.3 14 13.3 - - - - - - - 0.0
21/03:20pm 26.2 - -3.5 14 13.3 - - - - - - - 0.0
21/03:10pm 26.4 - -3.2 14 13.4 - - - - - - - 0.0
21/03:00pm 26.0 - -3.5 14 13.2 - - - - - - - 0.0
21/02:50pm 25.6 - -3.7 14 13.0 - - - - - - - 0.0
21/02:40pm 25.6 - -3.5 14 13.0 - - - - - - - 0.0
21/02:30pm 26.5 - -3.5 13 13.5 - - - - - - - 0.0
21/02:20pm 26.6 - -3.1 14 13.5 - - - - - - - 0.0
21/02:10pm 26.4 - -3.8 13 13.5 - - - - - - - 0.0
21/02:00pm 25.9 - -3.6 14 13.2 - - - - - - - 0.0
21/01:50pm 26.2 - -3.3 14 13.3 - - - - - - - 0.0
21/01:40pm 25.9 - -3.8 14 13.2 - - - - - - - 0.0
21/01:30pm 24.5 - -3.9 15 12.5 - - - - - - - 0.0
21/01:20pm 24.1 - -2.7 16 12.0 - - - - - - - 0.0
21/01:10pm 24.4 - -2.9 16 12.2 - - - - - - - 0.0
21/01:00pm 24.5 - -3.6 15 12.4 - - - - - - - 0.0
21/12:50pm 24.6 - -3.6 15 12.5 - - - - - - - 0.0
21/12:40pm 24.2 - -2.9 16 12.1 - - - - - - - 0.0
21/12:30pm 24.2 - -2.7 16 12.1 - - - - - - - 0.0
21/12:20pm 24.3 - -1.9 17 11.9 - - - - - - - 0.0
21/12:10pm 23.6 - -2.2 18 11.6 - - - - - - - 0.0
21/12:00pm 24.2 - -1.7 18 11.8 - - - - - - - 0.0
21/11:50am 24.1 - -2.2 17 11.9 - - - - - - - 0.0
21/11:40am 23.7 - -1.3 19 11.5 - - - - - - - 0.0
21/11:30am 23.7 - -1.4 19 11.5 - - - - - - - 0.0
21/11:20am 24.2 - -1.2 18 11.7 - - - - - - - 0.0
21/11:10am 23.3 - -1.4 19 11.3 - - - - - - - 0.0
21/11:00am 23.0 - -1.9 19 11.2 - - - - - - - 0.0
21/10:50am 22.5 - -2.1 19 11.0 - - - - - - - 0.0
21/10:40am 22.5 - -1.4 20 10.8 - - - - - - - 0.0
21/10:30am 21.7 - -1.7 21 10.5 - - - - - - - 0.0
21/10:20am 22.5 - -2.0 19 11.0 - - - - - - - 0.0
21/10:10am 21.6 - 0.5 24 9.8 - - - - - - - 0.0
21/10:00am 21.4 - 0.8 25 9.6 - - - - - - - 0.0
21/09:50am 20.6 - -0.2 25 9.5 - - - - - - - 0.0
21/09:40am 20.3 - 1.3 28 8.9 - - - - - - - 0.0
21/09:30am 20.1 - 2.1 30 8.6 - - - - - - - 0.0
21/09:20am 19.9 - 2.5 31 8.3 - - - - - - - 0.0
21/09:10am 19.2 - 3.9 36 7.5 - - - - - - - 0.0
21/09:00am 18.6 - 3.4 36 7.3 - - - - - - - 0.0
21/08:50am 17.8 - 4.2 40 6.6 - - - - - - - 0.0
21/08:40am 17.3 - 4.8 43 6.1 - - - - - - - 0.0
21/08:30am 16.9 - 4.5 43 6.0 - - - - - - - 0.0
21/08:20am 16.3 - 4.6 46 5.7 - - - - - - - 0.0
21/08:10am 15.8 - 4.5 47 5.5 - - - - - - - 0.0
21/08:00am 15.3 - 4.0 47 5.4 - - - - - - - 0.0
21/07:50am 14.8 - 3.7 47 5.2 - - - - - - - 0.0
21/07:40am 14.1 - 3.3 48 5.0 - - - - - - - 0.0
21/07:30am 13.6 - 2.8 48 5.0 - - - - - - - 0.0
21/07:20am 13.1 - 2.1 47 4.9 - - - - - - - 0.0
21/07:10am 12.8 - 1.7 47 4.9 - - - - - - - 0.0
21/07:00am 12.5 - 1.4 46 4.9 - - - - - - - 0.0
21/06:50am 12.3 - 1.2 46 4.9 - - - - - - - 0.0
21/06:40am 12.0 - 1.2 47 4.7 - - - - - - - 0.0
21/06:30am 11.6 - 1.1 48 4.6 - - - - - - - 0.0
21/06:20am 11.4 - 1.1 49 4.5 - - - - - - - 0.0
21/06:10am 11.5 - 1.0 48 4.5 - - - - - - - 0.0
21/06:00am 11.5 - 1.2 49 4.5 - - - - - - - 0.0
21/05:50am 11.6 - 1.0 48 4.6 - - - - - - - 0.0
21/05:40am 11.7 - 1.1 48 4.6 - - - - - - - 0.0
21/05:30am 11.9 - 0.9 47 4.8 - - - - - - - 0.0
21/05:20am 11.9 - 0.7 46 4.8 - - - - - - - 0.0
21/05:10am 12.1 - -0.2 42 5.2 - - - - - - - 0.0
21/05:00am 12.2 - -0.4 42 5.3 - - - - - - - 0.0
21/04:50am 12.2 - -1.7 38 5.7 - - - - - - - 0.0
21/04:40am 12.1 - -2.8 35 5.9 - - - - - - - 0.0
21/04:30am 12.2 - -3.3 34 6.1 - - - - - - - 0.0
21/04:20am 12.3 - -4.5 30 6.5 - - - - - - - 0.0
21/04:10am 12.4 - -5.1 29 6.7 - - - - - - - 0.0
21/04:00am 12.5 - -5.0 29 6.7 - - - - - - - 0.0
21/03:50am 12.6 - -4.9 29 6.7 - - - - - - - 0.0
21/03:40am 12.7 - -4.9 29 6.7 - - - - - - - 0.0
21/03:30am 12.7 - -5.2 28 6.8 - - - - - - - 0.0
21/03:20am 12.7 - -5.4 28 6.9 - - - - - - - 0.0
21/03:10am 12.8 - -5.5 27 6.9 - - - - - - - 0.0
21/03:00am 13.1 - -5.6 27 7.1 - - - - - - - 0.0
21/02:50am 13.2 - -5.7 26 7.2 - - - - - - - 0.0
21/02:40am 13.3 - -5.8 26 7.2 - - - - - - - 0.0
21/02:30am 13.4 - -5.8 26 7.3 - - - - - - - 0.0
21/02:20am 13.5 - -5.7 26 7.3 - - - - - - - 0.0
21/02:10am 13.8 - -5.7 25 7.4 - - - - - - - 0.0
21/02:00am 13.9 - -5.8 25 7.5 - - - - - - - 0.0
21/01:50am 14.0 - -5.9 24 7.6 - - - - - - - 0.0
21/01:40am 13.9 - -5.9 25 7.5 - - - - - - - 0.0
21/01:30am 14.0 - -5.9 24 7.6 - - - - - - - 0.0
21/01:20am 14.1 - -6.0 24 7.6 - - - - - - - 0.0
21/01:10am 14.5 - -5.9 24 7.8 - - - - - - - 0.0
21/01:00am 14.7 - -6.0 23 7.9 - - - - - - - 0.0
21/12:50am 14.7 - -6.1 23 7.9 - - - - - - - 0.0
21/12:40am 14.8 - -6.2 23 8.0 - - - - - - - 0.0
21/12:30am 15.0 - -6.3 22 8.1 - - - - - - - 0.0
21/12:20am 15.2 - -6.4 22 8.2 - - - - - - - 0.0
21/12:10am 15.4 - -6.5 21 8.4 - - - - - - - 0.0
21/12:00am 15.5 - -6.6 21 8.4 - - - - - - - 0.0
 
Date/Time
EDT
Temp
°C
App
Temp
°C
Dew
Point
°C
Rel
Hum
%
Delta-T
°C
Wind Press
QNH
hPa
Press
MSL
hPa
Rain since
9am
mm
Dir  Spd
km/h
Gust
km/h
Spd
kts
Gust
kts
20/11:50pm 15.7 - -6.6 21 8.5 - - - - - - - 0.0
20/11:40pm 15.7 - -6.7 21 8.5 - - - - - - - 0.0
20/11:30pm 15.9 - -6.7 20 8.6 - - - - - - - 0.0
20/11:20pm 15.9 - -6.8 20 8.6 - - - - - - - 0.0
20/11:10pm 16.1 - -6.9 20 8.8 - - - - - - - 0.0
20/11:00pm 16.1 - -6.9 20 8.8 - - - - - - - 0.0
20/10:50pm 16.3 - -6.8 20 8.8 - - - - - - - 0.0
20/10:40pm 16.4 - -6.6 20 8.8 - - - - - - - 0.0
20/10:30pm 16.7 - -6.6 19 9.0 - - - - - - - 0.0
20/10:20pm 16.9 - -6.6 19 9.1 - - - - - - - 0.0
20/10:10pm 16.9 - -6.7 19 9.1 - - - - - - - 0.0
20/10:00pm 16.9 - -6.9 19 9.1 - - - - - - - 0.0
20/09:50pm 16.9 - -7.0 19 9.2 - - - - - - - 0.0
20/09:40pm 17.2 - -7.2 18 9.4 - - - - - - - 0.0
20/09:30pm 17.3 - -7.4 18 9.4 - - - - - - - 0.0
20/09:20pm 17.4 - -7.6 17 9.5 - - - - - - - 0.0
20/09:10pm 17.4 - -7.6 17 9.5 - - - - - - - 0.0
20/09:00pm 17.6 - -7.7 17 9.6 - - - - - - - 0.0
20/08:50pm 17.8 - -7.6 17 9.7 - - - - - - - 0.0
20/08:40pm 17.9 - -7.6 17 9.8 - - - - - - - 0.0
20/08:30pm 18.2 - -7.5 16 9.9 - - - - - - - 0.0
20/08:20pm 18.4 - -7.5 16 10.0 - - - - - - - 0.0
20/08:10pm 18.4 - -7.5 16 10.0 - - - - - - - 0.0
20/08:00pm 18.6 - -7.5 16 10.1 - - - - - - - 0.0
20/07:50pm 18.9 - -7.5 16 10.2 - - - - - - - 0.0
20/07:40pm 19.0 - -7.5 16 10.3 - - - - - - - 0.0
20/07:30pm 19.2 - -7.6 15 10.4 - - - - - - - 0.0
20/07:20pm 19.5 - -7.6 15 10.6 - - - - - - - 0.0
20/07:10pm 19.8 - -7.6 15 10.7 - - - - - - - 0.0
20/07:00pm 20.2 - -7.7 14 10.9 - - - - - - - 0.0
20/06:50pm 20.5 - -8.0 14 11.1 - - - - - - - 0.0
20/06:40pm 20.7 - -7.9 14 11.2 - - - - - - - 0.0
20/06:30pm 20.8 - -8.0 13 11.3 - - - - - - - 0.0
20/06:20pm 20.9 - -7.8 14 11.3 - - - - - - - 0.0
20/06:10pm 21.2 - -7.7 13 11.4 - - - - - - - 0.0
20/06:00pm 21.5 - -8.1 13 11.7 - - - - - - - 0.0
20/05:50pm 21.8 - -8.3 12 11.8 - - - - - - - 0.0
20/05:40pm 21.8 - -8.1 13 11.8 - - - - - - - 0.0
20/05:30pm 21.9 - -8.0 13 11.8 - - - - - - - 0.0
20/05:20pm 22.1 - -8.7 12 12.1 - - - - - - - 0.0
20/05:10pm 22.6 - -8.0 12 12.2 - - - - - - - 0.0
20/05:00pm 23.1 - -7.4 12 12.4 - - - - - - - 0.0
20/04:50pm 22.7 - -8.1 12 12.3 - - - - - - - 0.0
20/04:40pm 22.6 - -8.5 12 12.3 - - - - - - - 0.0
20/04:30pm 22.5 - -8.0 12 12.2 - - - - - - - 0.0
20/04:20pm 23.2 - -8.1 12 12.5 - - - - - - - 0.0
20/04:10pm 23.1 - -7.3 12 12.4 - - - - - - - 0.0
20/04:00pm 22.6 - -7.9 12 12.2 - - - - - - - 0.0
20/03:50pm 22.2 - -8.2 12 12.0 - - - - - - - 0.0
20/03:40pm 22.5 - -8.9 11 12.3 - - - - - - - 0.0
20/03:30pm 22.7 - -7.9 12 12.2 - - - - - - - 0.0
20/03:20pm 22.3 - -8.3 12 12.1 - - - - - - - 0.0
20/03:10pm 22.3 - -7.3 13 11.9 - - - - - - - 0.0
20/03:00pm 21.9 - -7.6 13 11.8 - - - - - - - 0.0
20/02:50pm 21.2 - -7.2 14 11.4 - - - - - - - 0.0
20/02:40pm 21.9 - -7.3 13 11.7 - - - - - - - 0.0
20/02:30pm 21.8 - -7.3 13 11.7 - - - - - - - 0.0
20/02:20pm 22.1 - -6.5 14 11.7 - - - - - - - 0.0
20/02:10pm 22.0 - -6.2 14 11.6 - - - - - - - 0.0
20/02:00pm 22.1 - -6.2 14 11.6 - - - - - - - 0.0
20/01:50pm 21.2 - -6.1 15 11.2 - - - - - - - 0.0
20/01:40pm 20.9 - -5.7 16 10.9 - - - - - - - 0.0
20/01:30pm 20.8 - -5.6 16 10.8 - - - - - - - 0.0
20/01:20pm 20.6 - -5.9 16 10.8 - - - - - - - 0.0
20/01:10pm 19.9 - -5.8 17 10.4 - - - - - - - 0.0
20/01:00pm 19.9 - -6.3 16 10.5 - - - - - - - 0.0
20/12:50pm 19.7 - -5.6 17 10.3 - - - - - - - 0.0
20/12:40pm 19.6 - -4.3 19 10.0 - - - - - - - 0.0
20/12:30pm 20.3 - -4.8 18 10.4 - - - - - - - 0.0
20/12:20pm 19.9 - -4.7 18 10.2 - - - - - - - 0.0
20/12:10pm 19.6 - -4.3 19 10.0 - - - - - - - 0.0
20/12:00pm 19.7 - -4.0 20 9.9 - - - - - - - 0.0
20/11:50am 19.2 - -4.6 19 9.8 - - - - - - - 0.0
20/11:40am 18.5 - -4.6 20 9.5 - - - - - - - 0.0
20/11:30am 18.3 - -4.3 21 9.3 - - - - - - - 0.0
20/11:20am 18.4 - -4.5 20 9.4 - - - - - - - 0.0
20/11:10am 17.7 - -4.6 21 9.1 - - - - - - - 0.0
20/11:00am 17.7 - -4.6 21 9.1 - - - - - - - 0.0
20/10:50am 17.6 - -4.4 22 9.0 - - - - - - - 0.0
20/10:40am 17.3 - -6.1 19 9.2 - - - - - - - 0.0
20/10:30am 17.1 - -6.6 19 9.2 - - - - - - - 0.0
20/10:20am 17.0 - -5.5 21 8.9 - - - - - - - 0.0
20/10:10am 17.6 - -3.4 23 8.7 - - - - - - - 0.0
20/10:00am 16.8 - -2.3 27 8.1 - - - - - - - 0.0
20/09:50am 15.9 - -2.1 29 7.6 - - - - - - - 0.0
20/09:40am 15.7 - -2.3 29 7.5 - - - - - - - 0.0
20/09:30am 15.8 - -1.7 30 7.4 - - - - - - - 0.0
20/09:20am 15.6 - -1.9 30 7.4 - - - - - - - 0.0
20/09:10am 15.1 - -1.6 31 7.1 - - - - - - - 0.0
20/09:00am 14.6 - -1.7 32 6.8 - - - - - - - 0.0
20/08:50am 14.1 - -1.6 34 6.6 - - - - - - - 0.0
20/08:40am 13.6 - -1.8 34 6.4 - - - - - - - 0.0
20/08:30am 13.4 - -1.8 35 6.3 - - - - - - - 0.0
20/08:20am 13.0 - -1.9 35 6.1 - - - - - - - 0.0
20/08:10am 12.7 - -1.9 36 6.0 - - - - - - - 0.0
20/08:00am 12.4 - -1.6 38 5.8 - - - - - - - 0.0
20/07:50am 12.3 - -1.5 38 5.7 - - - - - - - 0.0
20/07:40am 11.9 - -1.8 38 5.6 - - - - - - - 0.0
20/07:30am 11.6 - -1.4 40 5.3 - - - - - - - 0.0
20/07:20am 11.4 - -1.1 42 5.2 - - - - - - - 0.0
20/07:10am 11.1 - -1.1 42 5.0 - - - - - - - 0.0
20/07:00am 10.8 - -1.2 43 4.9 - - - - - - - 0.0
20/06:50am 10.4 - -1.2 44 4.7 - - - - - - - 0.0
20/06:40am 10.0 - -1.2 45 4.5 - - - - - - - 0.0
20/06:30am 9.6 - -1.1 47 4.3 - - - - - - - 0.0
20/06:20am 9.6 - -1.0 47 4.3 - - - - - - - 0.0
20/06:10am 9.9 - -0.9 47 4.4 - - - - - - - 0.0
20/06:00am 10.0 - -0.9 46 4.4 - - - - - - - 0.0
20/05:50am 10.2 - -0.9 46 4.5 - - - - - - - 0.0
20/05:40am 10.3 - -1.0 45 4.6 - - - - - - - 0.0
20/05:30am 10.4 - -1.0 45 4.7 - - - - - - - 0.0
20/05:20am 10.4 - -0.9 45 4.6 - - - - - - - 0.0
20/05:10am 10.5 - -0.9 45 4.7 - - - - - - - 0.0
20/05:00am 10.6 - -0.9 45 4.7 - - - - - - - 0.0
20/04:50am 10.7 - -0.9 44 4.8 - - - - - - - 0.0
20/04:40am 10.7 - -0.9 44 4.8 - - - - - - - 0.0
20/04:30am 10.8 - -0.8 44 4.8 - - - - - - - 0.0
20/04:20am 11.0 - -0.8 44 4.9 - - - - - - - 0.0
20/04:10am 11.1 - -0.8 43 4.9 - - - - - - - 0.0
20/04:00am 11.3 - -0.8 43 5.0 - - - - - - - 0.0
20/03:50am 11.4 - -0.8 43 5.1 - - - - - - - 0.0
20/03:40am 11.5 - -0.8 42 5.1 - - - - - - - 0.0
20/03:30am 11.7 - -0.8 42 5.2 - - - - - - - 0.0
20/03:20am 11.9 - -0.7 41 5.3 - - - - - - - 0.0
20/03:10am 12.0 - -0.7 41 5.3 - - - - - - - 0.0
20/03:00am 12.3 - -0.6 41 5.4 - - - - - - - 0.0
20/02:50am 12.4 - -0.6 40 5.5 - - - - - - - 0.0
20/02:40am 12.5 - -0.6 40 5.5 - - - - - - - 0.0
20/02:30am 12.7 - -0.4 40 5.6 - - - - - - - 0.0
20/02:20am 12.9 - -0.4 40 5.6 - - - - - - - 0.0
20/02:10am 13.0 - -0.3 40 5.7 - - - - - - - 0.0
20/02:00am 13.1 - -0.3 39 5.7 - - - - - - - 0.0
20/01:50am 13.3 - -0.2 39 5.8 - - - - - - - 0.0
20/01:40am 13.5 - 0.0 39 5.8 - - - - - - - 0.0
20/01:30am 13.7 - 0.2 39 5.9 - - - - - - - 0.0
20/01:20am 14.1 - 0.3 39 6.0 - - - - - - - 0.0
20/01:10am 14.3 - 0.3 38 6.1 - - - - - - - 0.0
20/01:00am 14.5 - 0.5 38 6.2 - - - - - - - 0.0
20/12:50am 14.7 - 0.7 38 6.2 - - - - - - - 0.0
20/12:40am 14.9 - 1.1 39 6.2 - - - - - - - 0.0
20/12:30am 15.1 - 1.0 38 6.3 - - - - - - - 0.0
20/12:20am 15.3 - 0.5 36 6.6 - - - - - - - 0.0
20/12:10am 15.5 - 0.5 36 6.7 - - - - - - - 0.0
20/12:00am 15.7 - 1.2 37 6.5 - - - - - - - 0.0
 
Date/Time
EDT
Temp
°C
App
Temp
°C
Dew
Point
°C
Rel
Hum
%
Delta-T
°C
Wind Press
QNH
hPa
Press
MSL
hPa
Rain since
9am
mm
Dir  Spd
km/h
Gust
km/h
Spd
kts
Gust
kts
19/11:50pm 15.9 - 2.0 39 6.4 - - - - - - - 0.0
19/11:40pm 16.0 - 2.4 40 6.3 - - - - - - - 0.0
19/11:30pm 16.3 - 2.6 39 6.4 - - - - - - - 0.0
19/11:20pm 16.4 - 2.9 40 6.3 - - - - - - - 0.0
19/11:10pm 16.7 - 3.3 40 6.4 - - - - - - - 0.0
19/11:00pm 16.9 - 3.5 41 6.4 - - - - - - - 0.0
19/10:50pm 17.3 - 3.7 40 6.5 - - - - - - - 0.0
19/10:40pm 17.7 - 3.7 39 6.8 - - - - - - - 0.0
19/10:30pm 18.1 - 3.6 38 7.0 - - - - - - - 0.0
19/10:20pm 18.4 - 3.5 37 7.2 - - - - - - - 0.0
19/10:10pm 18.8 - 3.5 36 7.4 - - - - - - - 0.0
19/10:00pm 19.2 - 3.4 35 7.7 - - - - - - - 0.0
19/09:50pm 19.4 - 3.2 34 7.8 - - - - - - - 0.0
19/09:40pm 19.7 - 3.1 33 8.0 - - - - - - - 0.0
19/09:30pm 20.1 - 2.9 32 8.3 - - - - - - - 0.0
19/09:20pm 20.5 - 2.4 30 8.7 - - - - - - - 0.0
19/09:10pm 21.0 - 1.3 27 9.3 - - - - - - - 0.0
19/09:00pm 21.2 - -0.8 23 10.0 - - - - - - - 0.0
19/08:50pm 21.3 - -3.6 18 10.7 - - - - - - - 0.0
19/08:40pm 21.6 - -5.1 16 11.2 - - - - - - - 0.0
19/08:30pm 21.8 - -6.8 14 11.6 - - - - - - - 0.0
19/08:20pm 21.9 - -6.9 14 11.7 - - - - - - - 0.0
19/08:10pm 22.0 - -7.0 14 11.7 - - - - - - - 0.0
19/08:00pm 22.1 - -7.2 13 11.8 - - - - - - - 0.0
19/07:50pm 22.2 - -7.3 13 11.9 - - - - - - - 0.0
19/07:40pm 22.5 - -7.3 13 12.0 - - - - - - - 0.0
19/07:30pm 22.5 - -7.4 13 12.1 - - - - - - - 0.0
19/07:20pm 22.7 - -7.5 12 12.2 - - - - - - - 0.0
19/07:10pm 22.9 - -7.5 12 12.3 - - - - - - - 0.0
19/07:00pm 23.2 - -7.7 12 12.5 - - - - - - - 0.0
19/06:50pm 23.5 - -7.8 12 12.7 - - - - - - - 0.0
19/06:40pm 23.9 - -7.9 11 12.9 - - - - - - - 0.0
19/06:30pm 24.0 - -8.0 11 13.0 - - - - - - - 0.0
19/06:20pm 24.4 - -7.9 11 13.1 - - - - - - - 0.0
19/06:10pm 24.5 - -8.3 10 13.3 - - - - - - - 0.0
19/06:00pm 24.8 - -8.3 10 13.4 - - - - - - - 0.0
19/05:50pm 25.1 - -8.5 10 13.6 - - - - - - - 0.0
19/05:40pm 25.2 - -9.0 10 13.7 - - - - - - - 0.0
19/05:30pm 25.6 - -8.9 9 13.9 - - - - - - - 0.0
19/05:20pm 25.7 - -8.5 10 13.9 - - - - - - - 0.0
19/05:10pm 25.4 - -8.6 10 13.8 - - - - - - - 0.0
19/05:00pm 25.7 - -9.5 9 14.1 - - - - - - - 0.0
19/04:50pm 26.0 - -9.2 9 14.2 - - - - - - - 0.0
19/04:40pm 26.1 - -9.1 9 14.2 - - - - - - - 0.0
19/04:30pm 26.5 - -9.0 9 14.4 - - - - - - - 0.0
19/04:20pm 25.7 - -8.9 9 14.0 - - - - - - - 0.0
19/04:10pm 26.1 - -9.2 9 14.3 - - - - - - - 0.0
19/04:00pm 26.8 - -9.1 9 14.6 - - - - - - - 0.0
19/03:50pm 26.5 - -8.8 9 14.4 - - - - - - - 0.0
19/03:40pm 26.3 - -9.3 9 14.4 - - - - - - - 0.0
19/03:30pm 26.1 - -9.2 9 14.3 - - - - - - - 0.0
19/03:20pm 25.9 - -9.4 9 14.2 - - - - - - - 0.0
19/03:10pm 25.8 - -9.5 9 14.1 - - - - - - - 0.0
19/03:00pm 26.2 - -9.1 9 14.3 - - - - - - - 0.0
19/02:50pm 26.0 - -9.2 9 14.2 - - - - - - - 0.0
19/02:40pm 25.4 - -9.3 9 13.9 - - - - - - - 0.0
19/02:30pm 25.8 - -8.7 9 14.0 - - - - - - - 0.0
19/02:20pm 25.9 - -8.6 9 14.1 - - - - - - - 0.0
19/02:10pm 25.3 - -9.1 9 13.8 - - - - - - - 0.0
19/02:00pm 26.5 - -8.7 9 14.4 - - - - - - - 0.0
19/01:50pm 24.9 - -8.7 10 13.5 - - - - - - - 0.0
19/01:40pm 25.2 - -9.0 10 13.7 - - - - - - - 0.0
19/01:30pm 24.8 - -8.7 10 13.5 - - - - - - - 0.0
19/01:20pm 24.9 - -8.3 10 13.5 - - - - - - - 0.0
19/01:10pm 25.4 - -8.5 10 13.8 - - - - - - - 0.0
19/01:00pm 25.0 - -8.5 10 13.6 - - - - - - - 0.0
19/12:50pm 25.2 - -8.5 10 13.7 - - - - - - - 0.0
19/12:40pm 24.9 - -8.0 10 13.4 - - - - - - - 0.0
19/12:30pm 24.6 - -8.3 10 13.3 - - - - - - - 0.0
19/12:20pm 24.2 - -8.0 11 13.1 - - - - - - - 0.0
19/12:10pm 24.3 - -8.3 11 13.2 - - - - - - - 0.0
19/12:00pm 24.1 - -8.2 11 13.0 - - - - - - - 0.0
19/11:50am 23.7 - -8.2 11 12.8 - - - - - - - 0.0
19/11:40am 23.6 - -8.1 11 12.8 - - - - - - - 0.0
19/11:30am 23.5 - -7.8 12 12.7 - - - - - - - 0.0
19/11:20am 24.3 - -8.1 11 13.1 - - - - - - - 0.0
19/11:10am 23.7 - -7.7 12 12.7 - - - - - - - 0.0
19/11:00am 23.1 - -8.1 12 12.5 - - - - - - - 0.0
19/10:50am 22.9 - -8.0 12 12.4 - - - - - - - 0.0
19/10:40am 23.5 - -8.1 11 12.7 - - - - - - - 0.0
19/10:30am 23.3 - -7.8 12 12.5 - - - - - - - 0.0
19/10:20am 23.4 - -7.5 12 12.6 - - - - - - - 0.0
19/10:10am 23.1 - -8.2 12 12.5 - - - - - - - 0.0
19/10:00am 22.7 - -8.0 12 12.3 - - - - - - - 0.0
19/09:50am 22.2 - -7.6 13 11.9 - - - - - - - 0.0
19/09:40am 22.2 - -7.7 13 12.0 - - - - - - - 0.0
19/09:30am 21.8 - -7.8 13 11.8 - - - - - - - 0.0
19/09:20am 21.2 - -8.2 13 11.5 - - - - - - - 0.0
19/09:10am 20.8 - -8.5 13 11.4 - - - - - - - 0.0
19/09:00am 20.6 - -8.7 13 11.3 - - - - - - - 0.0
19/08:50am 20.3 - -8.6 13 11.1 - - - - - - - 0.0
19/08:40am 20.0 - -8.6 14 11.0 - - - - - - - 0.0
19/08:30am 20.0 - -8.5 14 11.0 - - - - - - - 0.0
19/08:20am 19.7 - -8.5 14 10.8 - - - - - - - 0.0
19/08:10am 19.3 - -8.5 14 10.6 - - - - - - - 0.0
19/08:00am 18.9 - -8.5 15 10.4 - - - - - - - 0.0
19/07:50am 18.5 - -8.7 15 10.3 - - - - - - - 0.0
19/07:40am 18.3 - -8.8 15 10.2 - - - - - - - 0.0
19/07:30am 18.0 - -9.1 15 10.1 - - - - - - - 0.0
19/07:20am 17.8 - -9.2 15 10.0 - - - - - - - 0.0
19/07:10am 17.7 - -9.3 15 10.0 - - - - - - - 0.0
19/07:00am 17.5 - -9.3 15 9.9 - - - - - - - 0.0
19/06:50am 17.3 - -9.5 15 9.8 - - - - - - - 0.0
19/06:40am 17.1 - -9.5 15 9.7 - - - - - - - 0.0
19/06:30am 16.9 - -9.5 15 9.6 - - - - - - - 0.0
19/06:20am 16.9 - -9.6 15 9.6 - - - - - - - 0.0
19/06:10am 16.9 - -9.6 15 9.6 - - - - - - - 0.0
19/06:00am 17.0 - -9.6 15 9.7 - - - - - - - 0.0
19/05:50am 17.1 - -9.7 15 9.7 - - - - - - - 0.0
19/05:40am 17.0 - -9.7 15 9.7 - - - - - - - 0.0
19/05:30am 17.0 - -9.7 15 9.7 - - - - - - - 0.0
19/05:20am 17.0 - -9.8 15 9.7 - - - - - - - 0.0
19/05:10am 17.1 - -9.8 15 9.8 - - - - - - - 0.0

Other formats

Comma delimited format used in spreadsheet applications
http://www.bom.gov.au/fwo/IDN60801/IDN60801.99133.axf

JavaScript Object Notation format (JSON) in row-major order
http://www.bom.gov.au/fwo/IDN60801/IDN60801.99133.json

Data quality

Most of these data are generated automatically and are frequently updated. Quality checks on data are not normally performed. It is possible for incorrect values to appear. Refer to information at About Latest Weather Observations and please check the disclaimer before using these data.